sensor_id;sensor_type;location;lat;lon;timestamp;pressure;altitude;pressure_sealevel;temperature;humidity
85055;BME280;75391;48.300;16.352;2024-03-02T00:01:53;99053.16;;;10.65;100.00
85055;BME280;75391;48.300;16.352;2024-03-02T00:04:19;99054.88;;;10.66;100.00
85055;BME280;75391;48.300;16.352;2024-03-02T00:06:44;99053.06;;;10.67;100.00
85055;BME280;75391;48.300;16.352;2024-03-02T00:09:11;99058.25;;;10.38;100.00
85055;BME280;75391;48.300;16.352;2024-03-02T00:11:37;99070.09;;;10.47;100.00
85055;BME280;75391;48.300;16.352;2024-03-02T00:14:02;99056.38;;;10.40;100.00
85055;BME280;75391;48.300;16.352;2024-03-02T00:16:31;99051.44;;;10.34;100.00
85055;BME280;75391;48.300;16.352;2024-03-02T00:19:02;99053.47;;;10.29;100.00
85055;BME280;75391;48.300;16.352;2024-03-02T00:21:29;99061.91;;;10.20;100.00
85055;BME280;75391;48.300;16.352;2024-03-02T00:23:55;99058.00;;;10.27;100.00
85055;BME280;75391;48.300;16.352;2024-03-02T00:26:21;99055.63;;;10.38;100.00
85055;BME280;75391;48.300;16.352;2024-03-02T00:28:46;99051.34;;;10.20;100.00
85055;BME280;75391;48.300;16.352;2024-03-02T00:31:12;99055.28;;;10.29;100.00
85055;BME280;75391;48.300;16.352;2024-03-02T00:36:07;99057.47;;;10.21;100.00
85055;BME280;75391;48.300;16.352;2024-03-02T00:38:34;99048.38;;;10.26;100.00
85055;BME280;75391;48.300;16.352;2024-03-02T00:41:06;99046.41;;;10.14;100.00
85055;BME280;75391;48.300;16.352;2024-03-02T00:46:20;99052.44;;;10.00;100.00
85055;BME280;75391;48.300;16.352;2024-03-02T00:48:55;99046.38;;;9.82;100.00
85055;BME280;75391;48.300;16.352;2024-03-02T00:51:23;99053.09;;;9.72;100.00
85055;BME280;75391;48.300;16.352;2024-03-02T00:53:49;99044.25;;;9.73;100.00
85055;BME280;75391;48.300;16.352;2024-03-02T00:56:15;99041.56;;;9.90;100.00
85055;BME280;75391;48.300;16.352;2024-03-02T00:58:41;99043.47;;;9.71;100.00
85055;BME280;75391;48.300;16.352;2024-03-02T01:01:06;99050.03;;;9.96;100.00
85055;BME280;75391;48.300;16.352;2024-03-02T01:03:32;99040.84;;;9.87;100.00
85055;BME280;75391;48.300;16.352;2024-03-02T01:05:57;99038.13;;;9.88;100.00
85055;BME280;75391;48.300;16.352;2024-03-02T01:08:23;99038.66;;;9.79;100.00
85055;BME280;75391;48.300;16.352;2024-03-02T01:10:49;99038.78;;;9.76;100.00
85055;BME280;75391;48.300;16.352;2024-03-02T01:13:15;99028.34;;;9.42;100.00
85055;BME280;75391;48.300;16.352;2024-03-02T01:15:40;99032.75;;;9.74;100.00
85055;BME280;75391;48.300;16.352;2024-03-02T01:18:06;99036.50;;;10.02;100.00
85055;BME280;75391;48.300;16.352;2024-03-02T01:20:31;99037.25;;;9.72;100.00
85055;BME280;75391;48.300;16.352;2024-03-02T01:22:57;99041.28;;;9.79;100.00
85055;BME280;75391;48.300;16.352;2024-03-02T01:25:22;99045.50;;;9.66;100.00
85055;BME280;75391;48.300;16.352;2024-03-02T01:27:48;99049.59;;;9.56;100.00
85055;BME280;75391;48.300;16.352;2024-03-02T01:30:13;99049.53;;;9.73;100.00
85055;BME280;75391;48.300;16.352;2024-03-02T01:32:39;99044.16;;;9.75;100.00
85055;BME280;75391;48.300;16.352;2024-03-02T01:35:05;99043.06;;;9.95;100.00
85055;BME280;75391;48.300;16.352;2024-03-02T01:37:31;99040.47;;;9.46;100.00
85055;BME280;75391;48.300;16.352;2024-03-02T01:39:56;99041.41;;;9.45;100.00
85055;BME280;75391;48.300;16.352;2024-03-02T01:42:22;99041.50;;;9.59;100.00
85055;BME280;75391;48.300;16.352;2024-03-02T01:44:48;99042.00;;;9.50;100.00
85055;BME280;75391;48.300;16.352;2024-03-02T01:47:13;99039.38;;;9.50;100.00
85055;BME280;75391;48.300;16.352;2024-03-02T01:49:39;99039.75;;;9.42;100.00
85055;BME280;75391;48.300;16.352;2024-03-02T01:52:04;99047.34;;;9.15;100.00
85055;BME280;75391;48.300;16.352;2024-03-02T01:54:30;99037.06;;;9.44;100.00
85055;BME280;75391;48.300;16.352;2024-03-02T01:56:55;99034.16;;;9.48;100.00
85055;BME280;75391;48.300;16.352;2024-03-02T01:59:21;99039.09;;;9.54;100.00
85055;BME280;75391;48.300;16.352;2024-03-02T02:01:46;99044.56;;;9.51;100.00
85055;BME280;75391;48.300;16.352;2024-03-02T02:04:12;99028.53;;;9.54;100.00
85055;BME280;75391;48.300;16.352;2024-03-02T02:06:38;99021.94;;;9.63;100.00
85055;BME280;75391;48.300;16.352;2024-03-02T02:09:03;99019.19;;;9.49;100.00
85055;BME280;75391;48.300;16.352;2024-03-02T02:11:29;99020.00;;;9.67;100.00
85055;BME280;75391;48.300;16.352;2024-03-02T02:13:54;99019.97;;;9.51;100.00
85055;BME280;75391;48.300;16.352;2024-03-02T02:16:20;99025.34;;;9.65;100.00
85055;BME280;75391;48.300;16.352;2024-03-02T02:18:46;99022.00;;;9.46;100.00
85055;BME280;75391;48.300;16.352;2024-03-02T02:21:11;99013.59;;;9.55;100.00
85055;BME280;75391;48.300;16.352;2024-03-02T02:23:36;99014.22;;;9.43;100.00
85055;BME280;75391;48.300;16.352;2024-03-02T02:26:02;99017.97;;;9.39;100.00
85055;BME280;75391;48.300;16.352;2024-03-02T02:28:28;99013.50;;;9.23;100.00
85055;BME280;75391;48.300;16.352;2024-03-02T02:30:54;99009.47;;;9.33;100.00
85055;BME280;75391;48.300;16.352;2024-03-02T02:33:20;99003.75;;;9.25;100.00
85055;BME280;75391;48.300;16.352;2024-03-02T02:35:46;99003.94;;;9.38;100.00
85055;BME280;75391;48.300;16.352;2024-03-02T02:38:11;98990.91;;;9.35;100.00
85055;BME280;75391;48.300;16.352;2024-03-02T02:40:37;98988.03;;;9.40;100.00
85055;BME280;75391;48.300;16.352;2024-03-02T02:43:03;98992.06;;;9.62;100.00
85055;BME280;75391;48.300;16.352;2024-03-02T02:45:28;98987.69;;;9.77;100.00
85055;BME280;75391;48.300;16.352;2024-03-02T02:47:54;99001.25;;;9.71;100.00
85055;BME280;75391;48.300;16.352;2024-03-02T02:50:19;98995.63;;;9.77;100.00
85055;BME280;75391;48.300;16.352;2024-03-02T02:52:45;99007.09;;;9.60;100.00
85055;BME280;75391;48.300;16.352;2024-03-02T02:55:11;99006.78;;;9.51;100.00
85055;BME280;75391;48.300;16.352;2024-03-02T02:57:39;99003.28;;;9.50;100.00
85055;BME280;75391;48.300;16.352;2024-03-02T03:00:07;98998.91;;;9.33;100.00
85055;BME280;75391;48.300;16.352;2024-03-02T03:02:32;98989.16;;;9.67;100.00
85055;BME280;75391;48.300;16.352;2024-03-02T03:04:58;98986.88;;;9.61;100.00
85055;BME280;75391;48.300;16.352;2024-03-02T03:07:23;98990.09;;;9.98;100.00
85055;BME280;75391;48.300;16.352;2024-03-02T03:09:48;98985.16;;;9.92;100.00
85055;BME280;75391;48.300;16.352;2024-03-02T03:12:14;98974.16;;;10.15;100.00
85055;BME280;75391;48.300;16.352;2024-03-02T03:14:43;98982.06;;;10.31;100.00
85055;BME280;75391;48.300;16.352;2024-03-02T03:17:08;98994.66;;;9.47;100.00
85055;BME280;75391;48.300;16.352;2024-03-02T03:19:34;98994.97;;;9.74;100.00
85055;BME280;75391;48.300;16.352;2024-03-02T03:21:59;98999.94;;;9.47;100.00
85055;BME280;75391;48.300;16.352;2024-03-02T03:24:25;99003.03;;;9.86;100.00
85055;BME280;75391;48.300;16.352;2024-03-02T03:26:50;98996.88;;;10.17;100.00
85055;BME280;75391;48.300;16.352;2024-03-02T03:29:15;99002.41;;;10.13;100.00
85055;BME280;75391;48.300;16.352;2024-03-02T03:31:41;99002.28;;;10.32;100.00
85055;BME280;75391;48.300;16.352;2024-03-02T03:34:07;99009.50;;;10.44;100.00
85055;BME280;75391;48.300;16.352;2024-03-02T03:36:32;99002.81;;;10.53;100.00
85055;BME280;75391;48.300;16.352;2024-03-02T03:38:58;99008.56;;;10.45;100.00
85055;BME280;75391;48.300;16.352;2024-03-02T03:41:23;99001.97;;;10.52;100.00
85055;BME280;75391;48.300;16.352;2024-03-02T03:43:49;99004.25;;;10.58;100.00
85055;BME280;75391;48.300;16.352;2024-03-02T03:46:14;99001.50;;;10.30;100.00
85055;BME280;75391;48.300;16.352;2024-03-02T03:48:40;99010.50;;;10.41;100.00
85055;BME280;75391;48.300;16.352;2024-03-02T03:51:05;99004.50;;;10.54;100.00
85055;BME280;75391;48.300;16.352;2024-03-02T03:53:31;99007.22;;;10.68;100.00
85055;BME280;75391;48.300;16.352;2024-03-02T03:55:56;99020.19;;;10.57;100.00
85055;BME280;75391;48.300;16.352;2024-03-02T03:58:22;99010.78;;;10.21;100.00
85055;BME280;75391;48.300;16.352;2024-03-02T04:00:47;99005.47;;;10.67;100.00
85055;BME280;75391;48.300;16.352;2024-03-02T04:03:13;99008.06;;;10.38;100.00
85055;BME280;75391;48.300;16.352;2024-03-02T04:05:38;99014.38;;;10.66;100.00
85055;BME280;75391;48.300;16.352;2024-03-02T04:08:04;99012.53;;;10.52;100.00
85055;BME280;75391;48.300;16.352;2024-03-02T04:10:29;99005.66;;;10.50;100.00
85055;BME280;75391;48.300;16.352;2024-03-02T04:12:55;99007.22;;;10.38;100.00
85055;BME280;75391;48.300;16.352;2024-03-02T04:15:20;98995.72;;;10.53;100.00
85055;BME280;75391;48.300;16.352;2024-03-02T04:17:46;99003.41;;;10.58;100.00
85055;BME280;75391;48.300;16.352;2024-03-02T04:20:12;99005.31;;;10.70;100.00
85055;BME280;75391;48.300;16.352;2024-03-02T04:22:37;99002.78;;;10.68;100.00
85055;BME280;75391;48.300;16.352;2024-03-02T04:25:03;99011.13;;;10.61;100.00
85055;BME280;75391;48.300;16.352;2024-03-02T04:27:29;99014.38;;;10.66;100.00
85055;BME280;75391;48.300;16.352;2024-03-02T04:29:54;99016.66;;;10.72;100.00
85055;BME280;75391;48.300;16.352;2024-03-02T04:32:20;99014.19;;;10.69;100.00
85055;BME280;75391;48.300;16.352;2024-03-02T04:34:45;99019.75;;;10.64;100.00
85055;BME280;75391;48.300;16.352;2024-03-02T04:37:11;99017.19;;;10.63;100.00
85055;BME280;75391;48.300;16.352;2024-03-02T04:39:36;99022.06;;;10.55;100.00
85055;BME280;75391;48.300;16.352;2024-03-02T04:42:02;99020.91;;;10.45;100.00
85055;BME280;75391;48.300;16.352;2024-03-02T04:44:28;99030.81;;;10.25;100.00
85055;BME280;75391;48.300;16.352;2024-03-02T04:46:53;99029.69;;;10.13;100.00
85055;BME280;75391;48.300;16.352;2024-03-02T04:49:19;99042.22;;;9.94;100.00
85055;BME280;75391;48.300;16.352;2024-03-02T04:51:44;99041.22;;;10.28;100.00
85055;BME280;75391;48.300;16.352;2024-03-02T04:54:09;99042.13;;;10.11;100.00
85055;BME280;75391;48.300;16.352;2024-03-02T04:56:35;99044.13;;;10.24;100.00
85055;BME280;75391;48.300;16.352;2024-03-02T04:59:00;99056.03;;;9.99;100.00
85055;BME280;75391;48.300;16.352;2024-03-02T05:01:26;99060.44;;;9.83;100.00
85055;BME280;75391;48.300;16.352;2024-03-02T05:03:51;99062.66;;;10.22;100.00
85055;BME280;75391;48.300;16.352;2024-03-02T05:06:17;99055.84;;;10.18;100.00
85055;BME280;75391;48.300;16.352;2024-03-02T05:08:42;99063.06;;;9.83;100.00
85055;BME280;75391;48.300;16.352;2024-03-02T05:11:08;99064.44;;;10.06;100.00
85055;BME280;75391;48.300;16.352;2024-03-02T05:13:33;99066.91;;;9.77;100.00
85055;BME280;75391;48.300;16.352;2024-03-02T05:15:58;99064.28;;;10.09;100.00
85055;BME280;75391;48.300;16.352;2024-03-02T05:18:24;99070.19;;;10.14;100.00
85055;BME280;75391;48.300;16.352;2024-03-02T05:20:49;99070.34;;;10.11;100.00
85055;BME280;75391;48.300;16.352;2024-03-02T05:23:15;99078.00;;;10.31;100.00
85055;BME280;75391;48.300;16.352;2024-03-02T05:25:40;99072.91;;;10.28;100.00
85055;BME280;75391;48.300;16.352;2024-03-02T05:28:06;99077.16;;;9.99;100.00
85055;BME280;75391;48.300;16.352;2024-03-02T05:30:31;99084.38;;;10.11;100.00
85055;BME280;75391;48.300;16.352;2024-03-02T05:32:57;99083.78;;;9.90;100.00
85055;BME280;75391;48.300;16.352;2024-03-02T05:35:22;99072.22;;;10.09;100.00
85055;BME280;75391;48.300;16.352;2024-03-02T05:37:48;99081.59;;;10.30;100.00
85055;BME280;75391;48.300;16.352;2024-03-02T05:40:13;99077.66;;;10.37;100.00
85055;BME280;75391;48.300;16.352;2024-03-02T05:42:39;99084.84;;;10.35;100.00
85055;BME280;75391;48.300;16.352;2024-03-02T05:45:05;99075.91;;;10.38;100.00
85055;BME280;75391;48.300;16.352;2024-03-02T05:47:30;99076.81;;;10.37;100.00
85055;BME280;75391;48.300;16.352;2024-03-02T05:49:56;99080.31;;;10.37;100.00
85055;BME280;75391;48.300;16.352;2024-03-02T05:52:21;99078.38;;;10.25;100.00
85055;BME280;75391;48.300;16.352;2024-03-02T05:54:47;99076.91;;;10.51;100.00
85055;BME280;75391;48.300;16.352;2024-03-02T05:57:12;99090.00;;;10.05;100.00
85055;BME280;75391;48.300;16.352;2024-03-02T05:59:38;99088.59;;;10.47;100.00
85055;BME280;75391;48.300;16.352;2024-03-02T06:02:03;99089.84;;;10.08;100.00
85055;BME280;75391;48.300;16.352;2024-03-02T06:04:29;99090.13;;;10.35;100.00
85055;BME280;75391;48.300;16.352;2024-03-02T06:06:54;99097.97;;;10.53;100.00
85055;BME280;75391;48.300;16.352;2024-03-02T06:09:20;99103.56;;;9.66;100.00
85055;BME280;75391;48.300;16.352;2024-03-02T06:11:45;99111.56;;;10.13;100.00
85055;BME280;75391;48.300;16.352;2024-03-02T06:14:10;99114.00;;;10.34;100.00
85055;BME280;75391;48.300;16.352;2024-03-02T06:16:36;99111.72;;;10.43;100.00
85055;BME280;75391;48.300;16.352;2024-03-02T06:19:01;99112.88;;;10.54;100.00
85055;BME280;75391;48.300;16.352;2024-03-02T06:21:27;99108.69;;;10.65;100.00
85055;BME280;75391;48.300;16.352;2024-03-02T06:23:53;99099.91;;;10.65;100.00
85055;BME280;75391;48.300;16.352;2024-03-02T06:26:19;99099.56;;;10.55;100.00
85055;BME280;75391;48.300;16.352;2024-03-02T06:28:45;99097.94;;;10.68;100.00
85055;BME280;75391;48.300;16.352;2024-03-02T06:31:11;99100.94;;;10.47;100.00
85055;BME280;75391;48.300;16.352;2024-03-02T06:33:36;99094.28;;;10.55;100.00
85055;BME280;75391;48.300;16.352;2024-03-02T06:36:02;99098.72;;;10.55;100.00
85055;BME280;75391;48.300;16.352;2024-03-02T06:38:28;99102.25;;;10.39;100.00
85055;BME280;75391;48.300;16.352;2024-03-02T06:40:54;99109.91;;;10.44;100.00
85055;BME280;75391;48.300;16.352;2024-03-02T06:43:19;99108.47;;;10.38;100.00
85055;BME280;75391;48.300;16.352;2024-03-02T06:45:45;99104.53;;;10.61;100.00
85055;BME280;75391;48.300;16.352;2024-03-02T06:48:10;99103.50;;;10.48;100.00
85055;BME280;75391;48.300;16.352;2024-03-02T06:50:36;99110.41;;;10.51;100.00
85055;BME280;75391;48.300;16.352;2024-03-02T06:53:01;99116.66;;;10.34;100.00
85055;BME280;75391;48.300;16.352;2024-03-02T06:55:27;99113.06;;;10.51;100.00
85055;BME280;75391;48.300;16.352;2024-03-02T06:57:53;99106.13;;;10.64;100.00
85055;BME280;75391;48.300;16.352;2024-03-02T07:00:19;99113.31;;;10.62;100.00
85055;BME280;75391;48.300;16.352;2024-03-02T07:02:45;99110.66;;;10.62;100.00
85055;BME280;75391;48.300;16.352;2024-03-02T07:05:10;99116.34;;;10.70;100.00
85055;BME280;75391;48.300;16.352;2024-03-02T07:07:36;99115.44;;;11.01;100.00
85055;BME280;75391;48.300;16.352;2024-03-02T07:10:02;99123.63;;;10.96;100.00
85055;BME280;75391;48.300;16.352;2024-03-02T07:12:28;99110.41;;;10.96;100.00
85055;BME280;75391;48.300;16.352;2024-03-02T07:14:54;99104.13;;;11.13;100.00
85055;BME280;75391;48.300;16.352;2024-03-02T07:17:19;99107.63;;;11.14;100.00
85055;BME280;75391;48.300;16.352;2024-03-02T07:19:45;99108.19;;;11.19;100.00
85055;BME280;75391;48.300;16.352;2024-03-02T07:22:10;99113.84;;;10.83;100.00
85055;BME280;75391;48.300;16.352;2024-03-02T07:24:42;99105.66;;;11.17;100.00
85055;BME280;75391;48.300;16.352;2024-03-02T07:27:09;99101.47;;;11.13;100.00
85055;BME280;75391;48.300;16.352;2024-03-02T07:29:35;99104.34;;;10.94;100.00
85055;BME280;75391;48.300;16.352;2024-03-02T07:32:00;99107.22;;;10.60;100.00
85055;BME280;75391;48.300;16.352;2024-03-02T07:34:26;99115.84;;;10.63;100.00
85055;BME280;75391;48.300;16.352;2024-03-02T07:36:52;99121.97;;;11.10;100.00
85055;BME280;75391;48.300;16.352;2024-03-02T07:39:17;99127.03;;;10.99;100.00
85055;BME280;75391;48.300;16.352;2024-03-02T07:41:45;99131.16;;;11.18;100.00
85055;BME280;75391;48.300;16.352;2024-03-02T07:44:11;99131.50;;;11.42;100.00
85055;BME280;75391;48.300;16.352;2024-03-02T07:46:36;99133.69;;;11.50;100.00
85055;BME280;75391;48.300;16.352;2024-03-02T07:49:02;99143.31;;;11.07;100.00
85055;BME280;75391;48.300;16.352;2024-03-02T07:51:27;99140.91;;;11.18;100.00
85055;BME280;75391;48.300;16.352;2024-03-02T07:53:53;99150.00;;;11.28;100.00
85055;BME280;75391;48.300;16.352;2024-03-02T07:56:18;99143.25;;;11.53;100.00
85055;BME280;75391;48.300;16.352;2024-03-02T07:58:45;99146.69;;;11.24;100.00
85055;BME280;75391;48.300;16.352;2024-03-02T08:01:10;99141.22;;;11.42;100.00
85055;BME280;75391;48.300;16.352;2024-03-02T08:03:37;99133.31;;;11.12;100.00
85055;BME280;75391;48.300;16.352;2024-03-02T08:06:03;99137.94;;;11.53;100.00
85055;BME280;75391;48.300;16.352;2024-03-02T08:08:29;99136.72;;;11.72;100.00
85055;BME280;75391;48.300;16.352;2024-03-02T08:10:54;99147.44;;;11.71;100.00
85055;BME280;75391;48.300;16.352;2024-03-02T08:13:19;99139.47;;;11.57;100.00
85055;BME280;75391;48.300;16.352;2024-03-02T08:15:45;99136.63;;;11.60;100.00
85055;BME280;75391;48.300;16.352;2024-03-02T08:18:11;99141.94;;;11.60;100.00
85055;BME280;75391;48.300;16.352;2024-03-02T08:20:36;99145.31;;;11.92;100.00
85055;BME280;75391;48.300;16.352;2024-03-02T08:23:02;99138.34;;;11.75;100.00
85055;BME280;75391;48.300;16.352;2024-03-02T08:25:27;99131.28;;;11.90;100.00
85055;BME280;75391;48.300;16.352;2024-03-02T08:27:53;99145.75;;;11.84;100.00
85055;BME280;75391;48.300;16.352;2024-03-02T08:30:18;99133.66;;;11.94;100.00
85055;BME280;75391;48.300;16.352;2024-03-02T08:32:44;99136.09;;;11.97;100.00
85055;BME280;75391;48.300;16.352;2024-03-02T08:35:10;99137.34;;;12.06;100.00
85055;BME280;75391;48.300;16.352;2024-03-02T08:37:38;99132.03;;;12.06;100.00
85055;BME280;75391;48.300;16.352;2024-03-02T08:40:06;99133.28;;;12.00;100.00
85055;BME280;75391;48.300;16.352;2024-03-02T08:42:32;99131.69;;;11.98;100.00
85055;BME280;75391;48.300;16.352;2024-03-02T08:44:57;99133.44;;;11.97;100.00
85055;BME280;75391;48.300;16.352;2024-03-02T08:47:23;99136.34;;;12.21;100.00
85055;BME280;75391;48.300;16.352;2024-03-02T08:49:48;99135.28;;;12.38;100.00
85055;BME280;75391;48.300;16.352;2024-03-02T08:52:14;99129.41;;;12.47;100.00
85055;BME280;75391;48.300;16.352;2024-03-02T08:54:39;99133.41;;;12.40;100.00
85055;BME280;75391;48.300;16.352;2024-03-02T08:57:05;99133.81;;;11.63;100.00
85055;BME280;75391;48.300;16.352;2024-03-02T08:59:31;99133.09;;;12.45;100.00
85055;BME280;75391;48.300;16.352;2024-03-02T09:01:57;99128.91;;;12.55;100.00
85055;BME280;75391;48.300;16.352;2024-03-02T09:04:23;99138.41;;;12.45;100.00
85055;BME280;75391;48.300;16.352;2024-03-02T09:06:48;99136.47;;;11.91;100.00
85055;BME280;75391;48.300;16.352;2024-03-02T09:09:13;99138.47;;;12.16;100.00
85055;BME280;75391;48.300;16.352;2024-03-02T09:11:39;99138.38;;;12.03;100.00
85055;BME280;75391;48.300;16.352;2024-03-02T09:14:04;99136.16;;;12.39;100.00
85055;BME280;75391;48.300;16.352;2024-03-02T09:16:30;99131.06;;;12.63;100.00
85055;BME280;75391;48.300;16.352;2024-03-02T09:18:56;99121.38;;;12.76;100.00
85055;BME280;75391;48.300;16.352;2024-03-02T09:21:22;99128.38;;;12.77;100.00
85055;BME280;75391;48.300;16.352;2024-03-02T09:23:47;99132.47;;;12.41;100.00
85055;BME280;75391;48.300;16.352;2024-03-02T09:26:13;99127.00;;;13.11;100.00
85055;BME280;75391;48.300;16.352;2024-03-02T09:28:38;99127.50;;;13.30;100.00
85055;BME280;75391;48.300;16.352;2024-03-02T09:31:07;99122.38;;;13.27;100.00
85055;BME280;75391;48.300;16.352;2024-03-02T09:33:33;99125.97;;;12.87;100.00
85055;BME280;75391;48.300;16.352;2024-03-02T09:35:58;99120.50;;;13.29;100.00
85055;BME280;75391;48.300;16.352;2024-03-02T09:38:24;99127.28;;;13.33;100.00
85055;BME280;75391;48.300;16.352;2024-03-02T09:40:49;99116.47;;;13.36;100.00
85055;BME280;75391;48.300;16.352;2024-03-02T09:43:15;99120.56;;;13.28;100.00
85055;BME280;75391;48.300;16.352;2024-03-02T09:45:40;99119.06;;;12.84;100.00
85055;BME280;75391;48.300;16.352;2024-03-02T09:48:07;99122.22;;;13.16;100.00
85055;BME280;75391;48.300;16.352;2024-03-02T09:50:32;99119.28;;;13.21;100.00
85055;BME280;75391;48.300;16.352;2024-03-02T09:52:58;99118.25;;;13.36;100.00
85055;BME280;75391;48.300;16.352;2024-03-02T09:55:24;99114.97;;;13.32;100.00
85055;BME280;75391;48.300;16.352;2024-03-02T09:57:50;99114.66;;;13.37;100.00
85055;BME280;75391;48.300;16.352;2024-03-02T10:00:16;99110.56;;;13.19;100.00
85055;BME280;75391;48.300;16.352;2024-03-02T10:02:42;99109.69;;;13.71;100.00
85055;BME280;75391;48.300;16.352;2024-03-02T10:05:10;99103.50;;;13.57;100.00
85055;BME280;75391;48.300;16.352;2024-03-02T10:07:36;99109.03;;;13.54;100.00
85055;BME280;75391;48.300;16.352;2024-03-02T10:10:15;99103.84;;;13.53;100.00
85055;BME280;75391;48.300;16.352;2024-03-02T10:12:41;99110.78;;;14.05;100.00
85055;BME280;75391;48.300;16.352;2024-03-02T10:15:07;99107.97;;;13.44;100.00
85055;BME280;75391;48.300;16.352;2024-03-02T10:17:33;99111.28;;;14.23;100.00
85055;BME280;75391;48.300;16.352;2024-03-02T10:19:58;99106.38;;;14.42;100.00
85055;BME280;75391;48.300;16.352;2024-03-02T10:22:24;99111.13;;;14.13;100.00
85055;BME280;75391;48.300;16.352;2024-03-02T10:24:51;99104.50;;;14.19;100.00
85055;BME280;75391;48.300;16.352;2024-03-02T10:27:22;99105.56;;;14.16;100.00
85055;BME280;75391;48.300;16.352;2024-03-02T10:29:49;99100.81;;;14.45;100.00
85055;BME280;75391;48.300;16.352;2024-03-02T10:32:15;99112.50;;;14.55;100.00
85055;BME280;75391;48.300;16.352;2024-03-02T10:34:44;99104.53;;;13.93;100.00
85055;BME280;75391;48.300;16.352;2024-03-02T10:37:11;99107.00;;;14.33;100.00
85055;BME280;75391;48.300;16.352;2024-03-02T10:39:37;99105.41;;;14.43;100.00
85055;BME280;75391;48.300;16.352;2024-03-02T10:42:03;99100.59;;;14.11;100.00
85055;BME280;75391;48.300;16.352;2024-03-02T10:44:30;99100.34;;;14.27;100.00
85055;BME280;75391;48.300;16.352;2024-03-02T10:46:56;99102.22;;;14.75;100.00
85055;BME280;75391;48.300;16.352;2024-03-02T10:49:23;99102.19;;;14.51;100.00
85055;BME280;75391;48.300;16.352;2024-03-02T10:51:50;99093.78;;;14.57;100.00
85055;BME280;75391;48.300;16.352;2024-03-02T10:54:15;99088.38;;;14.69;100.00
85055;BME280;75391;48.300;16.352;2024-03-02T10:56:42;99087.19;;;14.13;100.00
85055;BME280;75391;48.300;16.352;2024-03-02T10:59:28;99086.81;;;14.91;100.00
85055;BME280;75391;48.300;16.352;2024-03-02T11:01:58;99085.25;;;15.00;100.00
85055;BME280;75391;48.300;16.352;2024-03-02T11:04:25;99085.47;;;14.61;100.00
85055;BME280;75391;48.300;16.352;2024-03-02T11:06:51;99101.03;;;14.79;100.00
85055;BME280;75391;48.300;16.352;2024-03-02T11:09:22;99088.84;;;14.63;100.00
85055;BME280;75391;48.300;16.352;2024-03-02T11:14:42;99084.88;;;14.69;100.00
85055;BME280;75391;48.300;16.352;2024-03-02T11:17:08;99080.91;;;14.99;100.00
85055;BME280;75391;48.300;16.352;2024-03-02T11:19:34;99079.78;;;14.90;100.00
85055;BME280;75391;48.300;16.352;2024-03-02T11:22:02;99080.81;;;15.00;100.00
85055;BME280;75391;48.300;16.352;2024-03-02T11:24:28;99076.22;;;14.78;100.00
85055;BME280;75391;48.300;16.352;2024-03-02T11:26:54;99085.41;;;14.74;100.00
85055;BME280;75391;48.300;16.352;2024-03-02T11:32:01;99084.75;;;14.47;100.00
85055;BME280;75391;48.300;16.352;2024-03-02T11:34:30;99089.94;;;14.61;100.00
85055;BME280;75391;48.300;16.352;2024-03-02T11:36:57;99087.00;;;14.77;100.00
85055;BME280;75391;48.300;16.352;2024-03-02T11:39:23;99092.47;;;14.26;100.00
85055;BME280;75391;48.300;16.352;2024-03-02T11:41:48;99086.69;;;14.92;100.00
85055;BME280;75391;48.300;16.352;2024-03-02T11:44:15;99081.03;;;14.73;100.00
85055;BME280;75391;48.300;16.352;2024-03-02T11:46:41;99080.91;;;14.75;100.00
85055;BME280;75391;48.300;16.352;2024-03-02T11:49:06;99092.09;;;14.43;100.00
85055;BME280;75391;48.300;16.352;2024-03-02T11:51:35;99086.47;;;14.48;100.00
85055;BME280;75391;48.300;16.352;2024-03-02T11:54:00;99081.78;;;14.51;100.00
85055;BME280;75391;48.300;16.352;2024-03-02T11:56:26;99080.47;;;14.81;100.00
85055;BME280;75391;48.300;16.352;2024-03-02T11:58:53;99080.41;;;14.69;100.00
85055;BME280;75391;48.300;16.352;2024-03-02T12:01:19;99084.81;;;14.58;100.00
85055;BME280;75391;48.300;16.352;2024-03-02T12:03:45;99082.97;;;14.95;100.00
85055;BME280;75391;48.300;16.352;2024-03-02T12:06:11;99080.38;;;14.93;100.00
85055;BME280;75391;48.300;16.352;2024-03-02T12:08:36;99085.41;;;15.09;100.00
85055;BME280;75391;48.300;16.352;2024-03-02T12:11:03;99091.13;;;15.16;100.00
85055;BME280;75391;48.300;16.352;2024-03-02T12:13:28;99090.78;;;14.85;100.00
85055;BME280;75391;48.300;16.352;2024-03-02T12:15:55;99093.78;;;14.57;100.00
85055;BME280;75391;48.300;16.352;2024-03-02T12:18:20;99089.28;;;14.57;100.00
85055;BME280;75391;48.300;16.352;2024-03-02T12:20:48;99089.16;;;14.72;100.00
85055;BME280;75391;48.300;16.352;2024-03-02T12:23:14;99089.97;;;14.96;100.00
85055;BME280;75391;48.300;16.352;2024-03-02T12:25:40;99094.91;;;14.89;100.00
85055;BME280;75391;48.300;16.352;2024-03-02T12:28:06;99087.72;;;14.79;100.00
85055;BME280;75391;48.300;16.352;2024-03-02T12:30:35;99088.38;;;14.93;100.00
85055;BME280;75391;48.300;16.352;2024-03-02T12:33:01;99087.25;;;14.85;100.00
85055;BME280;75391;48.300;16.352;2024-03-02T12:35:26;99091.63;;;14.86;100.00
85055;BME280;75391;48.300;16.352;2024-03-02T12:37:53;99086.34;;;14.97;100.00
85055;BME280;75391;48.300;16.352;2024-03-02T12:40:19;99088.28;;;14.95;100.00
85055;BME280;75391;48.300;16.352;2024-03-02T12:42:46;99074.38;;;15.03;100.00
85055;BME280;75391;48.300;16.352;2024-03-02T12:45:13;99085.50;;;14.96;100.00
85055;BME280;75391;48.300;16.352;2024-03-02T12:47:42;99082.97;;;14.95;100.00